createdAt,value
2023-01-13T00:04:55.111Z,1.00
2023-01-13T00:09:58.703Z,1.13
2023-01-13T00:15:03.209Z,1.20
2023-01-13T00:20:07.449Z,1.30
2023-01-13T00:25:10.909Z,1.97
2023-01-13T00:30:15.967Z,1.48
2023-01-13T00:35:19.069Z,1.52
2023-01-13T00:40:22.112Z,2.20
2023-01-13T00:45:26.410Z,2.10
2023-01-13T00:50:31.401Z,2.08
2023-01-13T00:55:34.373Z,2.22
2023-01-13T01:00:38.625Z,2.57
2023-01-13T01:05:41.539Z,1.95
2023-01-13T01:10:44.464Z,2.50
2023-01-13T01:15:49.785Z,2.60
2023-01-13T01:20:53.215Z,2.30
2023-01-13T01:25:56.487Z,2.47
2023-01-13T01:31:02.166Z,2.53
2023-01-13T01:36:05.574Z,2.90
2023-01-13T01:41:08.771Z,2.50
2023-01-13T01:46:13.110Z,2.30
2023-01-13T01:51:16.680Z,3.17
2023-01-13T01:56:22.392Z,3.20
2023-01-13T02:01:26.930Z,3.08
2023-01-13T02:06:31.173Z,3.08
2023-01-13T02:11:53.624Z,3.45
2023-01-13T02:17:12.099Z,3.50
2023-01-13T02:22:33.718Z,3.10
2023-01-13T02:28:27.186Z,3.40
2023-01-13T02:33:43.275Z,3.28
2023-01-13T02:38:52.370Z,3.65
2023-01-13T02:44:08.701Z,3.45
2023-01-13T02:49:19.702Z,3.63
2023-01-13T02:54:26.788Z,3.55
2023-01-13T02:59:32.162Z,4.15
2023-01-13T03:04:52.079Z,4.10
2023-01-13T03:10:04.642Z,4.00
2023-01-13T03:15:14.551Z,4.45
2023-01-13T03:20:26.597Z,4.95
2023-01-13T03:25:32.546Z,4.10
2023-01-13T03:30:41.846Z,4.40
2023-01-13T03:35:50.289Z,4.25
2023-01-13T03:40:57.878Z,4.57
2023-01-13T03:46:05.822Z,4.93
2023-01-13T03:51:17.196Z,4.28
2023-01-13T03:56:26.707Z,3.28
2023-01-13T04:01:36.112Z,3.13
2023-01-13T04:06:48.288Z,2.53
2023-01-13T04:11:56.730Z,3.30
2023-01-13T04:16:59.404Z,3.00
2023-01-13T04:22:03.372Z,2.65
2023-01-13T04:27:06.205Z,2.80
2023-01-13T04:32:08.865Z,2.60
2023-01-13T04:37:12.727Z,3.08
2023-01-13T04:42:15.667Z,3.43
2023-01-13T04:47:18.270Z,3.15
2023-01-13T04:52:22.139Z,3.50
2023-01-13T04:57:24.683Z,3.05
2023-01-13T05:02:27.241Z,3.60
2023-01-13T05:07:31.137Z,3.85
2023-01-13T05:12:51.473Z,3.80
2023-01-13T05:17:54.010Z,2.92
2023-01-13T05:23:15.759Z,3.50
2023-01-13T05:28:18.404Z,3.25
2023-01-13T05:33:21.445Z,3.40
2023-01-13T05:38:25.345Z,3.10
2023-01-13T05:43:28.688Z,3.47
2023-01-13T05:48:33.712Z,3.25
2023-01-13T05:53:37.656Z,3.55
2023-01-13T05:58:40.220Z,3.30
2023-01-13T06:03:43.183Z,3.38
2023-01-13T06:08:47.068Z,3.30
2023-01-13T06:13:49.591Z,3.30
2023-01-13T06:18:52.521Z,3.37
2023-01-13T06:23:56.867Z,2.90
2023-01-13T06:28:59.420Z,3.80
2023-01-13T06:34:08.365Z,2.90
2023-01-13T06:39:17.147Z,3.25
2023-01-13T06:44:23.839Z,3.30
2023-01-13T06:49:26.408Z,2.80
2023-01-13T06:54:30.327Z,2.90
2023-01-13T06:59:34.291Z,2.90
2023-01-13T07:04:36.846Z,3.27
2023-01-13T07:09:40.960Z,3.22
2023-01-13T07:15:13.340Z,3.10
2023-01-13T07:20:16.759Z,3.70
2023-01-13T07:25:20.636Z,3.00
2023-01-13T07:30:23.176Z,3.65
2023-01-13T07:35:25.729Z,3.30
2023-01-13T07:40:29.591Z,3.15
2023-01-13T07:45:32.207Z,3.13
2023-01-13T07:50:34.827Z,3.42
2023-01-13T07:55:43.572Z,3.55
2023-01-13T08:00:46.229Z,3.60
2023-01-13T08:05:49.328Z,3.55
2023-01-13T08:10:53.247Z,3.53
2023-01-13T08:16:01.589Z,3.40
2023-01-13T08:21:06.041Z,3.38
2023-01-13T08:26:12.830Z,3.85
2023-01-13T08:31:17.323Z,3.70
2023-01-13T08:36:20.308Z,4.15
2023-01-13T08:41:38.184Z,3.50
2023-01-13T08:46:42.441Z,3.63
2023-01-13T08:51:45.465Z,4.50
2023-01-13T08:56:49.484Z,3.63
2023-01-13T09:01:52.221Z,4.45
2023-01-13T09:06:55.193Z,3.80
2023-01-13T09:12:16.646Z,3.70
2023-01-13T09:17:19.374Z,4.40
2023-01-13T09:22:26.854Z,4.37
2023-01-13T09:27:30.962Z,4.70
2023-01-13T09:32:34.173Z,3.70
2023-01-13T09:37:38.737Z,4.47
2023-01-13T09:43:05.518Z,4.30
2023-01-13T09:48:14.491Z,4.37
2023-01-13T09:53:22.595Z,4.40
2023-01-13T09:58:26.865Z,4.13
2023-01-13T10:03:30.835Z,4.68
2023-01-13T10:08:35.386Z,4.10
2023-01-13T10:13:39.516Z,4.38
2023-01-13T10:18:51.388Z,5.50
2023-01-13T10:24:07.150Z,4.20
2023-01-13T10:29:22.072Z,5.85
2023-01-13T10:34:27.714Z,4.82
2023-01-13T10:39:40.379Z,4.70
2023-01-13T10:44:53.105Z,4.40
2023-01-13T10:50:18.252Z,4.40
2023-01-13T10:55:28.618Z,4.97
2023-01-13T11:00:36.521Z,4.90
2023-01-13T11:05:39.199Z,5.20
2023-01-13T11:10:47.135Z,4.88
2023-01-13T11:15:58.127Z,4.75
2023-01-13T11:21:01.786Z,5.20
2023-01-13T11:26:11.604Z,4.95
2023-01-13T11:31:21.850Z,4.50
2023-01-13T11:36:29.828Z,4.35
2023-01-13T11:41:42.903Z,4.70
2023-01-13T11:46:49.649Z,5.00
2023-01-13T11:51:58.824Z,4.40
2023-01-13T11:57:20.862Z,4.20
2023-01-13T12:02:43.265Z,3.93
2023-01-13T12:07:59.492Z,4.10
2023-01-13T12:13:10.263Z,4.30
2023-01-13T12:18:28.422Z,4.30
2023-01-13T12:23:36.013Z,4.10
2023-01-13T12:28:48.874Z,3.80
2023-01-13T12:34:05.867Z,4.05
2023-01-13T12:39:18.362Z,3.70
2023-01-13T12:44:21.342Z,4.43
2023-01-13T12:49:30.229Z,4.00
2023-01-13T12:55:18.782Z,4.40
2023-01-13T13:00:21.939Z,5.50
2023-01-13T13:05:41.938Z,4.40
2023-01-13T13:10:59.325Z,4.78
2023-01-13T13:16:46.063Z,4.25
2023-01-13T13:22:19.272Z,5.05
2023-01-13T13:27:27.071Z,4.63
2023-01-13T13:32:52.163Z,4.50
2023-01-13T13:38:27.550Z,4.90
2023-01-13T13:43:51.715Z,4.70
2023-01-13T13:48:55.465Z,4.80
2023-01-13T13:54:02.644Z,4.00
2023-01-13T13:59:05.284Z,4.00
2023-01-13T14:04:15.621Z,4.40
2023-01-13T14:09:20.757Z,4.00
2023-01-13T14:14:24.450Z,3.40
2023-01-13T14:19:33.973Z,4.10
2023-01-13T14:24:47.328Z,4.78
2023-01-13T14:29:58.598Z,4.70
2023-01-13T14:35:07.894Z,4.38
2023-01-13T14:40:51.879Z,4.17
2023-01-13T14:46:00.274Z,4.40
2023-01-13T14:51:11.659Z,4.70
2023-01-13T14:56:46.352Z,4.00
2023-01-13T15:01:55.090Z,3.60
2023-01-13T15:07:05.915Z,3.50
2023-01-13T15:12:40.624Z,4.20
2023-01-13T15:17:49.893Z,4.30
2023-01-13T15:22:54.248Z,3.33
2023-01-13T15:28:04.159Z,3.47
2023-01-13T15:33:13.623Z,3.70
2023-01-13T15:38:23.874Z,3.35
2023-01-13T15:43:51.288Z,3.70
2023-01-13T15:48:58.014Z,3.80
2023-01-13T15:54:02.448Z,3.50
2023-01-13T15:59:18.504Z,3.93
2023-01-13T16:04:27.875Z,3.67
2023-01-13T16:09:32.280Z,3.60
2023-01-13T16:14:39.060Z,4.22
2023-01-13T16:19:43.293Z,4.20
2023-01-13T16:24:45.957Z,4.00
2023-01-13T16:29:50.972Z,4.60
2023-01-13T16:34:53.550Z,3.75
2023-01-13T16:39:56.144Z,3.70
2023-01-13T16:45:06.968Z,4.50
2023-01-13T16:50:23.233Z,3.90
2023-01-13T16:55:26.900Z,3.35
2023-01-13T17:00:31.069Z,3.83
2023-01-13T17:05:33.891Z,3.80
2023-01-13T17:10:36.478Z,3.50
2023-01-13T17:15:40.777Z,4.00
2023-01-13T17:20:43.386Z,3.50
2023-01-13T17:25:45.959Z,4.22
2023-01-13T17:30:50.277Z,4.07
2023-01-13T17:35:52.800Z,3.55
2023-01-13T17:40:55.357Z,3.50
2023-01-13T17:45:59.371Z,3.63
2023-01-13T17:51:03.381Z,3.70
2023-01-13T17:56:07.472Z,4.00
2023-01-13T18:01:14.250Z,4.10
2023-01-13T18:06:19.310Z,4.18
2023-01-13T18:11:23.568Z,4.15
2023-01-13T18:16:30.343Z,5.15
2023-01-13T18:21:50.842Z,5.23
2023-01-13T18:27:10.964Z,4.70
2023-01-13T18:39:03.808Z,5.05
2023-01-13T18:44:06.686Z,4.70
2023-01-13T18:49:09.691Z,4.47
2023-01-13T18:54:16.229Z,4.85
2023-01-13T18:59:18.984Z,3.60
2023-01-13T19:04:21.948Z,4.35
2023-01-13T19:09:27.040Z,4.30
2023-01-13T19:14:37.254Z,4.53
2023-01-13T19:19:42.102Z,4.23
2023-01-13T19:24:46.161Z,4.37
2023-01-13T19:29:52.528Z,4.30
2023-01-13T19:34:59.146Z,4.30
2023-01-13T19:40:08.955Z,4.13
2023-01-13T19:45:30.826Z,4.85
2023-01-13T19:50:38.328Z,4.30
2023-01-13T19:55:47.628Z,4.50
2023-01-13T20:00:50.804Z,4.95
2023-01-13T20:05:54.247Z,4.50
2023-01-13T20:11:19.397Z,4.68
2023-01-13T20:16:21.991Z,3.60
2023-01-13T20:21:24.702Z,4.10
2023-01-13T20:26:28.566Z,4.60
2023-01-13T20:31:31.190Z,4.43
2023-01-13T20:36:37.370Z,7.27
2023-01-13T20:41:59.348Z,4.18
2023-01-13T20:47:02.800Z,4.40
2023-01-13T20:52:09.356Z,4.63
2023-01-13T20:57:14.006Z,4.25
2023-01-13T21:02:17.532Z,4.57
2023-01-13T21:07:20.104Z,7.70
2023-01-13T21:12:41.609Z,4.72
2023-01-13T21:18:01.901Z,4.63
2023-01-13T21:23:05.529Z,4.53
2023-01-13T21:28:11.412Z,4.38
2023-01-13T21:33:14.418Z,4.43
2023-01-13T21:38:17.766Z,4.60
2023-01-13T21:43:39.192Z,4.97
2023-01-13T21:48:41.741Z,4.75
2023-01-13T21:53:44.264Z,4.70
2023-01-13T21:58:48.701Z,4.30
2023-01-13T22:04:08.909Z,4.73
2023-01-13T22:09:12.664Z,5.00
2023-01-13T22:14:16.543Z,5.00
2023-01-13T22:19:19.517Z,5.35
2023-01-13T22:24:22.169Z,5.10
2023-01-13T22:29:26.057Z,5.40
2023-01-13T22:34:28.615Z,5.78
2023-01-13T22:39:31.673Z,6.50
2023-01-13T22:44:35.654Z,6.13
2023-01-13T22:49:38.219Z,5.80
2023-01-13T22:54:40.819Z,6.05
2023-01-13T22:59:44.718Z,6.00
2023-01-13T23:04:47.314Z,5.60
2023-01-13T23:09:49.907Z,6.65
2023-01-13T23:14:54.477Z,6.40
2023-01-13T23:19:57.690Z,6.07
2023-01-13T23:25:00.221Z,6.37
2023-01-13T23:30:06.558Z,6.22
2023-01-13T23:35:09.886Z,6.50
2023-01-13T23:40:13.542Z,5.07
2023-01-13T23:45:17.690Z,5.82
2023-01-13T23:50:20.779Z,6.40
2023-01-13T23:55:23.341Z,5.90
